<< Go Back

Run for PI
Date: Mar. 14, 2017
Results by Everal Race Management
Contact for Race Timing

Run For PI
3.14 PI
Age Group Results
March 14, 17

Results Provided by Everal Race Management

Male Overall Winners
Total
Place Name City Bib No Age Overall Time Pace
1 Clayton Rice Maumee OH 183 22 1 17:45 5:39/M
Female Overall Winners
Total
Place Name City Bib No Age Overall Time Pace
1 Joanna Line 138 28 3 18:40 5:57/M
Male Masters Winners
Total
Place Name City Bib No Age Overall Time Pace
1 Jeffrey Lammers Bowling Green OH 322 41 5 18:54 6:01/M
Female Masters Winners
Total
Place Name City Bib No Age Overall Time Pace
1 Tamara Bengela Toledo OH 18 45 21 22:12 7:04/M
Male 9 and Under
Total
Place Name City Bib No Age Overall Time Pace
1 Graham Neunham Sylvania OH 157 9 101 28:09 8:58/M
2 Collin Brogan 31 9 102 28:10 8:58/M
3 Charlie Norrington 161 8 183 33:00 10:31/M
Female 9 and Under
Total
Place Name City Bib No Age Overall Time Pace
1 Shelby Janes Bowling Green OH 114 9 58 25:24 8:05/M
2 Ashlyn Lindow 326 8 233 37:18 11:53/M
3 Emberson Bigelow 20 7 239 38:13 12:10/M
4 Amber Smith 209 9 282 51:37 16:26/M
Male 10 to 12
Total
Place Name City Bib No Age Overall Time Pace
1 Jack Caldwell Curtice OH 41 11 63 25:43 8:11/M
2 Brazden Brown 34 12 71 26:24 8:24/M
3 Thomas Norrington Haskins OH 163 11 77 26:43 8:31/M
4 Ryne Neunham Sylvania OH 158 12 99 28:04 8:56/M
Female 10 to 12
Total
Place Name City Bib No Age Overall Time Pace
1 Aubrey Duhaine 300 12 23 22:21 7:07/M
2 Lucy Porter Toledo OH 314 10 66 25:51 8:14/M
3 Madeline Heinrichs Temperance MI 97 12 74 26:29 8:26/M
4 Delaney Heinze 100 10 138 30:04 9:35/M
5 Angeline Morgillo-Zunk 153 11 184 33:02 10:31/M
Male 13 to 14
Total
Place Name City Bib No Age Overall Time Pace
1 Lucas Pease Luckey OH 172 14 25 22:24 7:08/M
2 Jack Genzman Toledo OH 79 13 43 23:37 7:31/M
3 Reegan Arps Deshler OH 7 13 50 24:36 7:50/M
4 Conner McCracken 145 14 62 25:41 8:11/M
5 Tyler Nowowiejski 165 14 69 26:13 8:21/M
6 Zack Marieh 335 14 92 27:44 8:50/M
7 Cory Miler Erie MI 147 14 251 39:57 12:43/M
8 Austin Gibbons 81 14 260 41:59 13:22/M
Female 13 to 14
Total
Place Name City Bib No Age Overall Time Pace
1 Thomas Urbina 226 14 4 18:48 5:59/M
2 Tiare Nicholas-Bublick 298 14 89 27:25 8:44/M
3 Caitlin Heinze 99 13 192 33:17 10:36/M
4 Grace Bigelow Toledo OH 21 13 261 42:00 13:23/M
Male 15 to 19
Total
Place Name City Bib No Age Overall Time Pace
1 Josh Ignatowski Bowling Green OH 108 18 8 20:05 6:24/M
2 Christian Bolke 278 19 10 20:49 6:38/M
3 Gabriel Robinson Ottawa Hills OH 187 15 14 21:20 6:48/M
4 Sean Fernandez 306 16 20 22:10 7:04/M
5 Nathan Payne 269 15 26 22:25 7:08/M
6 Quinn McLoughlin Monclova OH 318 17 27 22:27 7:09/M
7 Justin Lowry Wauseon OH 319 19 28 22:39 7:13/M
8 Cole Lyons Maumee OH 317 18 40 23:14 7:24/M
9 Connor Gregory Maumee OH 88 18 42 23:35 7:31/M
10 Erik Pease Luckey OH 170 16 44 23:46 7:34/M
11 Jacob Keller Maumee OH 302 17 46 23:57 7:38/M
12 Ben Bialek Monclova OH 320 16 47 24:21 7:45/M
13 Dylan Brogan Perrysburg OH 32 15 55 25:13 8:02/M
14 Evan Foster 339 17 104 28:11 8:59/M
15 Ben Goldinger Sarver PA 85 19 106 28:13 8:59/M
16 Nick Celestino Monclova OH 45 15 130 29:28 9:23/M
17 Alexander Reyes Maumee OH 182 17 135 29:52 9:31/M
18 Romulus Arps Deshler OH 8 16 193 33:19 10:37/M
Female 15 to 19
Total
Place Name City Bib No Age Overall Time Pace
1 Madelynne Hilt Whitehouse OH 284 15 48 24:33 7:49/M
2 Abigail Duhaine 301 15 49 24:34 7:49/M
3 Olivia Cook Temprance MI 55 17 80 26:52 8:33/M
4 Mackenzie Kruszka Temperance MI 129 16 81 26:53 8:34/M
5 Kelsey Borowicz 27 18 142 30:10 9:36/M
6 Ally Happ 92 16 165 31:44 10:06/M
7 Paige Carpenter 43 17 174 32:20 10:18/M
8 Taylor Carpenter 44 18 175 32:23 10:19/M
9 Emma Marks Waterville OH 282 17 213 34:44 11:04/M
10 Kiersten Haney Maumee OH 91 15 262 42:01 13:23/M
11 Diala Abou-Dahech 1 16 266 43:59 14:00/M
12 Hannah Fox 75 16 267 43:59 14:00/M
Male 20 to 24
Total
Place Name City Bib No Age Overall Time Pace
1 Austin Hageman 289 22 11 21:02 6:42/M
2 James Windsor 280 21 29 22:39 7:13/M
3 Michael Chung Curtice OH 49 21 79 26:49 8:32/M
Female 20 to 24
Total
Place Name City Bib No Age Overall Time Pace
1 Rebecca Witter 243 22 100 28:06 8:57/M
2 Cheyann Bean 281 20 120 28:54 9:12/M
3 Angela Dewar Carleton MI 293 24 136 29:52 9:31/M
4 Mckenna Walford 330 20 216 34:47 11:05/M
5 Jordan Minor Sylvania OH 148 23 222 35:12 11:13/M
Male 25 to 29
Total
Place Name City Bib No Age Overall Time Pace
1 Eric Line 137 26 41 23:27 7:28/M
2 Matt Painter Holland OH 168 25 67 25:59 8:16/M
3 Sean Lewallen 135 28 189 33:11 10:34/M
Female 25 to 29
Total
Place Name City Bib No Age Overall Time Pace
1 Erica Loroff 140 27 98 28:01 8:55/M
2 Lindsey Young 250 27 128 29:21 9:21/M
3 Kellie Buschor 308 29 177 32:28 10:20/M
4 Emily Schneider 200 29 188 33:11 10:34/M
5 Katelyn Murray Toledo OH 333 28 197 33:37 10:42/M
6 Tiffany Moore 150 28 201 34:03 10:51/M
7 Ashley Rohen 188 28 205 34:13 10:54/M
Male 30 to 34
Total
Place Name City Bib No Age Overall Time Pace
1 Brett Strickland 217 33 16 21:31 6:51/M
2 Joseph Blakely 23 33 53 24:58 7:57/M
3 Aaron Zdawczyk Perrysburg OH 253 32 90 27:36 8:47/M
4 Randall Grajczyk 86 30 97 27:58 8:54/M
5 Scott Wongrowski 245 30 173 32:13 10:16/M
6 Jason Hemmelgern 102 34 208 34:15 10:54/M
7 Joshua Muller 155 33 218 34:53 11:07/M
8 Casey Gibson Toledo OH 82 33 219 34:54 11:07/M
9 Adam Jarvis Maumee OH 115 33 243 38:29 12:15/M
Female 30 to 34
Total
Place Name City Bib No Age Overall Time Pace
1 Amy Bui Maumee OH 38 32 36 22:52 7:17/M
2 Emily Zmarzly Perrysburg OH 254 32 84 26:58 8:35/M
3 Emily Strong 220 34 96 27:53 8:53/M
4 Kayla Keller Petersburg MI 295 34 111 28:25 9:03/M
5 Jessica Knapp Whitehouse OH 123 30 122 29:05 9:16/M
6 Allison Staccone Toledo OH 260 32 131 29:32 9:24/M
7 Christina Jackson Maumee OH 111 31 150 30:53 9:50/M
8 Mary Pinkava 177 34 158 31:18 9:58/M
9 Nycole Clark Toledo OH 51 33 168 31:57 10:11/M
10 Kylee Wongrowski 244 31 172 32:13 10:16/M
11 Jessica Young 249 33 176 32:27 10:20/M
12 Tiffany Morgillo 152 32 191 33:13 10:35/M
13 Yasmine Shasteen 205 31 198 33:49 10:46/M
14 Jodi Hardiny 334 33 223 35:14 11:13/M
15 Heather Pentycofe Erie MI 174 30 225 36:10 11:31/M
16 Nikki Eitle 68 32 229 36:58 11:46/M
17 Krystal Connell Perrysburg OH 261 31 236 38:03 12:07/M
18 Patricia Dowd 64 34 248 39:36 12:37/M
19 Beth Jarvis 116 33 255 40:07 12:47/M
20 Alexis Pitney Ottawa Lake MI 264 33 256 40:20 12:51/M
21 Amy Hollon Perrysburg OH 263 33 278 49:39 15:49/M
22 Havilah Gay 77 34 279 50:25 16:03/M
Male 35 to 39
Total
Place Name City Bib No Age Overall Time Pace
1 Jeremiah Wagner 228 39 2 18:16 5:49/M
2 Aaron Strong 219 36 9 20:31 6:32/M
3 Scott Hilt Gibsonburg OH 299 39 64 25:51 8:14/M
4 Stephanie Owens 338 38 72 26:27 8:25/M
5 Dennis Kennedy Toledo OH 119 35 94 27:48 8:51/M
6 Greg Christy Perrysburg OH 48 38 127 29:20 9:21/M
7 Tim Niderkorn 160 37 186 33:05 10:32/M
Female 35 to 39
Total
Place Name City Bib No Age Overall Time Pace
1 Chantilly Kessler Perrysburg OH 290 36 13 21:19 6:47/M
2 Sarah Anderson Maumee OH 277 35 30 22:44 7:14/M
3 Kori Kawczynski Toledo OH 288 39 34 22:48 7:16/M
4 Andrea Born Perrysburg OH 26 39 52 24:39 7:51/M
5 Angie Crippen 276 37 56 25:19 8:04/M
6 Jessica Ely Toledo OH 69 37 82 26:57 8:35/M
7 Julie Steinhardt Perrysburg OH 331 36 93 27:48 8:51/M
8 Sara Jones Perrysburg OH 259 35 95 27:49 8:52/M
9 Cheryl Brogan Perrysburg OH 30 35 103 28:11 8:59/M
10 Liz Boltz Toledo OH 287 38 105 28:13 8:59/M
11 Heather Janes Bowling Green OH 113 38 114 28:34 9:06/M
12 Heather Cole Lima OH 52 39 115 28:35 9:06/M
13 Catherine Perry 257 36 137 29:57 9:32/M
14 Courtney Konik Sylvania OH 126 35 143 30:11 9:37/M
15 Jaime Banners Perrysburg OH 329 35 154 30:56 9:51/M
16 Tiffany Duran Temperance MI 65 36 166 31:48 10:08/M
17 Paula Apostolou 5 37 170 32:07 10:14/M
18 Cory Norrington Haskins OH 162 39 185 33:03 10:32/M
19 Cheryl Thompson Whitehouse OH 222 37 187 33:08 10:33/M
20 Sheila Franks 76 39 221 35:10 11:12/M
21 Kylie Courter Walbridge OH 56 38 232 37:13 11:51/M
22 Sherry Lindow Woodville OH 325 36 234 37:19 11:53/M
23 Elizabeth Niderkorn 159 39 237 38:03 12:07/M
24 Maryanne Kaatz 118 39 240 38:14 12:11/M
25 Jennifer Smith 210 37 250 39:51 12:41/M
26 Jodie Petcoff 175 37 252 40:00 12:44/M
27 Heather Siders Ney OH 303 36 253 40:00 12:44/M
28 Cindy Stanfield Bowling Green OH 214 39 275 47:18 15:04/M
29 Annette Lohberger Genoa OH 139 38 280 51:36 16:26/M
Male 40 to 44
Total
Place Name City Bib No Age Overall Time Pace
1 Eric Glinski 83 42 7 19:22 6:10/M
2 Michael Porter 313 40 12 21:13 6:45/M
3 Andrew Janes Bowling Green OH 112 42 17 21:39 6:54/M
4 Chris Cunningham Bowling Green OH 272 43 18 21:42 6:55/M
5 Brian Deppen Waterville OH 256 44 116 28:38 9:07/M
6 Eric Haney Maumee OH 90 44 129 29:23 9:21/M
7 Gregory Byrne Fremont OH 40 40 160 31:19 9:58/M
8 Phil Baumann 15 43 284 55:18 17:37/M
Female 40 to 44
Total
Place Name City Bib No Age Overall Time Pace
1 Amy Spieth 213 43 31 22:46 7:15/M
2 Dawn Green Waterville OH 87 42 59 25:26 8:06/M
3 Amy Lammers Bowling Green OH 321 42 68 26:13 8:21/M
4 Kristi Hoeft Martin OH 107 41 70 26:21 8:24/M
5 Sarah Glinski Perrysburg OH 84 41 108 28:20 9:01/M
6 Jennifer Beale Whitehouse OH 304 40 110 28:24 9:03/M
7 Janet White 312 42 113 28:32 9:05/M
8 Jennifer Pease Luckey OH 171 44 125 29:12 9:18/M
9 Christine Nowowiejski Toledo OH 164 44 144 30:17 9:39/M
10 Jaime Brown Grand Rapids OH 35 41 147 30:39 9:46/M
11 Sarah Mitchell 149 42 148 30:45 9:48/M
12 Nicole Heinrichs Temperance MI 98 43 153 30:54 9:50/M
13 Laura Williams 270 43 161 31:20 9:59/M
14 Selena Bicholas-Bublick 296 40 171 32:08 10:14/M
15 Wendy Campbell Toledo OH 42 41 178 32:36 10:23/M
16 Rebecca Heinze 101 41 180 32:51 10:28/M
17 Teri Pratt 311 44 199 33:50 10:46/M
18 Georgia Burling Oregon OH 39 41 200 33:57 10:49/M
19 Bonniue Baumann 14 41 204 34:09 10:53/M
20 Sarah Arps Deshler OH 9 41 212 34:32 11:00/M
21 Stephanie Box Toledo OH 29 41 220 35:06 11:11/M
22 Deanna Kohlhofer 124 44 230 36:59 11:47/M
23 Stacey Yaros Toledo OH 248 41 241 38:21 12:13/M
24 Libby King 120 42 244 38:32 12:16/M
25 Kami Deppen Waterville OH 255 41 273 45:57 14:38/M
26 Kolleen Kopchak Bradner OH 127 44 274 47:18 15:04/M
27 Robin Smith 212 41 281 51:36 16:26/M
Male 45 to 49
Total
Place Name City Bib No Age Overall Time Pace
1 Jonathan Hong 305 46 6 19:05 6:05/M
2 Sam Wygant 247 49 15 21:23 6:49/M
3 Tom O'Riordon Swanton OH 265 48 19 21:46 6:56/M
4 Tim Book Perrysburg OH 24 46 38 23:09 7:22/M
5 Bob Thomason Perrysburg OH 316 46 45 23:49 7:35/M
6 Robert Austin Toledo OH 336 46 61 25:27 8:06/M
7 Jeff Heebsh 96 46 83 26:58 8:35/M
8 Chet Welch 233 46 107 28:15 9:00/M
9 David Tobar Weston OH 223 46 119 28:51 9:11/M
10 Brian Kaestner 273 45 126 29:14 9:19/M
11 Paul Genzman Toledo OH 80 45 140 30:07 9:35/M
12 Jeff Hempel Ida MI 104 46 194 33:21 10:37/M
13 Christopher Marks Waterville OH 283 47 196 33:27 10:39/M
14 Jeff Logsda 309 45 209 34:16 10:55/M
Female 45 to 49
Total
Place Name City Bib No Age Overall Time Pace
1 Michelle Brooks 33 49 32 22:46 7:15/M
2 Lori Mahoney 141 45 33 22:47 7:15/M
3 Barb Geise Toledo OH 78 45 39 23:10 7:23/M
4 Sarah Speer 332 48 54 25:08 8:00/M
5 Marina Austin Toledo OH 337 46 60 25:27 8:06/M
6 Trina Richie 297 45 88 27:18 8:42/M
7 Dawn Whitaker Toledo OH 234 47 109 28:21 9:02/M
8 Sandra Baldwin Toledo OH 262 46 134 29:50 9:30/M
9 Denise Dashner Temperance MI 59 46 141 30:09 9:36/M
10 Amy Isley Perrysburg OH 110 45 145 30:22 9:40/M
11 Kim Palmer Perrysburg OH 169 47 146 30:26 9:42/M
12 Toni Hartman 94 45 152 30:54 9:50/M
13 Rachel Foreman North Baltimore OH 74 46 155 30:56 9:51/M
14 Kelly Arndt Sylvania OHIO 6 47 159 31:18 9:58/M
15 Libbie Comes Maumee OH 53 46 167 31:49 10:08/M
16 Annette Schultz 201 46 181 32:53 10:28/M
17 Amy Hempel Ida MI 103 49 210 34:17 10:55/M
18 Michelle Mosiniak Curtice OH 154 49 217 34:52 11:06/M
19 Paula Steward 216 49 226 36:13 11:32/M
20 Tonda Koszycki Toledo OH 128 49 227 36:21 11:35/M
21 Cristina Whitmore Toledo OH 236 46 228 36:31 11:38/M
22 Leone Hall 258 46 238 38:07 12:08/M
Male 50 to 54
Total
Place Name City Bib No Age Overall Time Pace
1 Kenneth Adkins 3 52 24 22:22 7:07/M
2 Tim Schmucker Blissfield MI 199 50 76 26:35 8:28/M
3 Jim Adams Sylvania OH 2 54 78 26:44 8:31/M
4 Robert Neeley Oregon OH 156 50 85 27:06 8:38/M
5 Greg A'Asiororski 274 54 124 29:11 9:18/M
6 Dave Schultz Custar OH 307 52 151 30:54 9:50/M
7 Steven Overholser Whitehouse OH 167 54 157 31:06 9:54/M
8 Thomas Walter 230 54 190 33:13 10:35/M
9 Jerry Schultz Erie MI 202 50 268 44:26 14:09/M
Female 50 to 54
Total
Place Name City Bib No Age Overall Time Pace
1 Path Papp 323 54 57 25:23 8:05/M
2 Melanie Lager 132 53 139 30:06 9:35/M
3 Loree Cochell Toledo OH 291 54 149 30:51 9:49/M
4 Cheryl Walter 229 52 156 31:04 9:54/M
5 Kimberly Turco 225 53 203 34:08 10:52/M
6 Terri McPherson 146 53 207 34:15 10:54/M
7 Stacey Dietrich Swanton, OH 63 52 211 34:23 10:57/M
8 Janice Naveken Toledo OH 285 50 271 45:28 14:29/M
9 Tracy Marsh Toledo OH 142 52 283 54:19 17:18/M
Male 55 to 59
Total
Place Name City Bib No Age Overall Time Pace
1 Edgar Rapp 324 58 22 22:21 7:07/M
2 Doug Schmucker Toledo OH 197 57 51 24:39 7:51/M
3 Richard Brown 36 58 73 26:27 8:25/M
4 Jeff Van Demark Perrysburg OH 275 56 75 26:32 8:27/M
5 Kevin Coulter Waterville OH 310 57 87 27:18 8:42/M
6 J.d. McCoy Sylvania OH 144 58 121 28:55 9:13/M
7 George Spader Lambertville MI 315 59 164 31:38 10:04/M
8 Doug Binkley 22 58 214 34:45 11:04/M
9 Jeffrey Davis Berkley MI 61 55 246 39:21 12:32/M
10 Merle Dech Toledo OH 62 55 263 42:27 13:31/M
11 Domingo Valadez Temperance MI 227 57 265 42:36 13:34/M
Female 55 to 59
Total
Place Name City Bib No Age Overall Time Pace
1 Jan Lehman Rossford OH 134 55 86 27:17 8:41/M
2 Mary Jo Witfoth Swanton OH 242 58 118 28:49 9:11/M
3 Julie Wilson 241 57 123 29:08 9:17/M
4 Linda Morgillo 151 58 182 33:00 10:31/M
5 Amy Whitehead 235 57 231 37:05 11:49/M
6 Carol Forbes Wauseon OH 73 59 254 40:01 12:45/M
7 Jenny Barlos Maumee OH 266 55 258 40:34 12:55/M
8 Patty Schmucker Toledo OH 198 59 269 44:38 14:13/M
Male 60 to 64
Total
Place Name City Bib No Age Overall Time Pace
1 Dave Wallingford Bellevue OH 279 64 35 22:49 7:16/M
2 Lawrence Coates Bowling Green OH 328 60 112 28:31 9:05/M
3 Chuck Sisco 208 63 117 28:40 9:08/M
4 Bill Bourquin Toledo OH 28 63 169 32:01 10:12/M
5 Greg Williams Perrysburg OH 238 62 249 39:44 12:39/M
Female 60 to 64
Total
Place Name City Bib No Age Overall Time Pace
1 Joan Mathews Maumee OH 267 60 91 27:37 8:48/M
2 Cheryl Stromski Antwerp OH 218 61 224 36:01 11:28/M
3 Kathryn Pilewskie Toledo OH 176 62 259 41:45 13:18/M
4 Denise Rex Toledo OH 271 63 272 45:30 14:29/M
Male 65 to 69
Total
Place Name City Bib No Age Overall Time Pace
1 Donald Bashor Wauseon OH 13 66 37 23:02 7:20/M
2 Phil Schmidt Whitehouse OH 196 68 65 25:51 8:14/M
3 John Flahie Monclova OH 71 68 132 29:35 9:25/M
4 Doyle Salsberry Norwalk OH 195 69 133 29:49 9:30/M
5 Chuck Rautio 180 65 163 31:22 9:59/M
6 Carlos Decarvalho 327 67 179 32:48 10:27/M
7 George Ho Oregon OH 106 65 202 34:05 10:51/M
8 Edward Dagiau Bowling Green OH 58 69 235 37:23 11:54/M
9 Chris Conroy Maumee OH 54 68 257 40:33 12:55/M
10 Marlin Short Wauseon OH 207 68 270 44:54 14:18/M
Female 65 to 69
Total
Place Name City Bib No Age Overall Time Pace
1 Grace Thatcher 221 65 215 34:46 11:04/M
2 Lois Berkowitz Riverview MI 19 68 247 39:22 12:32/M
3 Joyce Dashner Temperance MI 60 69 276 48:01 15:18/M
Male 70 to 74
Total
Place Name City Bib No Age Overall Time Pace
1 Tom Wiles Perrysburg OH 237 74 206 34:13 10:54/M
2 Jerome Tomc 224 74 242 38:24 12:14/M
Female 70 to 74
Total
Place Name City Bib No Age Overall Time Pace
1 Jane Zbinden Toledo OH 252 74 277 49:30 15:46/M
Male 75 to 79
Total
Place Name City Bib No Age Overall Time Pace
1 James Lagger Perrysburg OH 133 76 195 33:23 10:38/M
2 Carl Anderson Monclova OH 4 75 245 39:07 12:27/M
Female 75 to 79
Total
Place Name City Bib No Age Overall Time Pace
1 Barbara Linderman 136 75 162 31:22 9:59/M
Male 80 & up
Total
Place Name City Bib No Age Overall Time Pace
1 Harrison Hensley Pinckney MI 105 84 264 42:35 13:34/M